Maersk Vallvik — 9V8839 — position and weather

sailwx.info

Track history (hours):
 
Tides and Currents Weather Stations Pressure Air Temp Water Temp Dewpoint Dewpoint Depression Visibility Wind Speed Wind Dir Waves Ship Positions

Maersk Vallvik

Last reported at 2017-Aug-13 08:48 UTC. Time now 2017-Aug-17 06:08 UTC.
Position S 33°44' E 018°09'.

Length 180 m; draft 10.4 m.

Type: Ship (hazmat cat B). MMSI: 564837000.

Date/timePositionNaut miles runAvg speedWind from/ knotsBaromVisibWave heightAir tempDewpointWater temp
2017-Aug-13 08:48S 33°44' E 018°09'516.5
2017-Aug-13 08:30S 33°47' E 018°14'816.0
2017-Aug-13 08:00S 33°51' E 018°22'3 6.1
2017-Aug-13 07:30S 33°51' E 018°25'3 6.4
2017-Aug-13 07:00S 33°55' E 018°26'0 0.4
2017-Aug-13 06:29S 33°55' E 018°26'0 0.0
2017-Aug-13 05:59S 33°55' E 018°26'0 0.0
2017-Aug-13 05:29S 33°55' E 018°26'0 0.0
2017-Aug-13 04:59S 33°55' E 018°26'0 0.0
2017-Aug-13 04:29S 33°55' E 018°26'0 0.0
2017-Aug-13 03:59S 33°55' E 018°26'0 0.0
2017-Aug-13 03:29S 33°55' E 018°26'0 0.0
2017-Aug-13 02:56S 33°55' E 018°26'0 0.0
2017-Aug-13 02:29S 33°55' E 018°26'0 0.0
2017-Aug-13 01:59S 33°55' E 018°26'0 0.0
2017-Aug-13 01:29S 33°55' E 018°26'0 0.0
2017-Aug-13 00:59S 33°55' E 018°26'0 0.0
2017-Aug-13 00:29S 33°55' E 018°26'0 0.0
2017-Aug-12 23:56S 33°55' E 018°26'0 0.0
2017-Aug-12 23:29S 33°55' E 018°26'0 0.0
2017-Aug-12 22:59S 33°55' E 018°26'0 0.0
2017-Aug-12 22:29S 33°55' E 018°26'0 0.0
2017-Aug-12 21:59S 33°55' E 018°26'0 0.0
2017-Aug-12 21:29S 33°55' E 018°26'0 0.0
2017-Aug-12 20:59S 33°55' E 018°26'0 0.0
2017-Aug-12 20:29S 33°55' E 018°26'0 0.0
2017-Aug-12 19:59S 33°55' E 018°26'0 0.0
2017-Aug-12 19:23S 33°55' E 018°26'0 0.0
2017-Aug-12 18:59S 33°55' E 018°26'0 0.0
2017-Aug-12 18:29S 33°55' E 018°26'0 0.0
2017-Aug-12 17:59S 33°55' E 018°26'0 0.0
2017-Aug-12 17:29S 33°55' E 018°26'0 0.0
2017-Aug-12 16:59S 33°55' E 018°26'0 0.0
2017-Aug-12 16:29S 33°55' E 018°26'0 0.0
2017-Aug-12 15:59S 33°55' E 018°26'0 0.0
2017-Aug-12 15:26S 33°55' E 018°26'0 0.0
2017-Aug-12 14:59S 33°55' E 018°26'0 0.0
2017-Aug-12 14:29S 33°55' E 018°26'0 0.0
2017-Aug-12 13:59S 33°55' E 018°26'0 0.0
2017-Aug-12 13:29S 33°55' E 018°26'0 0.0
2017-Aug-12 12:59S 33°55' E 018°26'0 0.0
2017-Aug-12 12:26S 33°55' E 018°26'0 0.0
2017-Aug-12 11:59S 33°55' E 018°26'0 0.0
2017-Aug-12 11:29S 33°55' E 018°26'0 0.0
2017-Aug-12 10:56S 33°55' E 018°26'0 0.0
2017-Aug-12 10:23S 33°55' E 018°26'0 0.0
2017-Aug-12 09:59S 33°55' E 018°26'0 0.0
2017-Aug-12 09:29S 33°55' E 018°26'0 0.0
2017-Aug-12 08:59S 33°55' E 018°26'0 0.0
2017-Aug-12 08:29S 33°55' E 018°26'0 0.0
2017-Aug-12 07:56S 33°55' E 018°26'0 0.0
2017-Aug-12 07:26S 33°55' E 018°26'0 0.0
2017-Aug-12 06:56S 33°55' E 018°26'0 0.0
2017-Aug-12 06:20S 33°55' E 018°26'0 0.0
2017-Aug-12 05:59S 33°55' E 018°26'0 0.0
2017-Aug-12 05:29S 33°55' E 018°26'0 0.0
2017-Aug-12 04:59S 33°55' E 018°26'0 0.0
2017-Aug-12 04:29S 33°55' E 018°26'0 0.0
2017-Aug-12 03:59S 33°55' E 018°26'0 0.0
2017-Aug-12 03:29S 33°55' E 018°26'0 0.0
2017-Aug-12 02:56S 33°55' E 018°26'0 0.0
2017-Aug-12 02:26S 33°55' E 018°26'0 0.0
2017-Aug-12 01:59S 33°55' E 018°26'0 0.0
2017-Aug-12 01:29S 33°55' E 018°26'0 0.0
2017-Aug-12 00:59S 33°55' E 018°26'0 0.0
2017-Aug-12 00:29S 33°55' E 018°26'0 0.0
2017-Aug-11 23:59S 33°55' E 018°26'0 0.0
2017-Aug-11 23:29S 33°55' E 018°26'0 0.0
2017-Aug-11 22:56S 33°55' E 018°26'0 0.0
2017-Aug-11 22:29S 33°55' E 018°26'0 0.0
2017-Aug-11 21:56S 33°55' E 018°26'0 0.0
2017-Aug-11 21:29S 33°55' E 018°26'0 0.0
2017-Aug-11 20:59S 33°55' E 018°26'0 0.0
2017-Aug-11 20:26S 33°55' E 018°26'0 0.2
2017-Aug-11 20:00S 33°55' E 018°26'2 4.7
2017-Aug-11 19:30S 33°52' E 018°26'5 9.7
2017-Aug-11 19:00S 33°52' E 018°20'714.4
2017-Aug-11 18:29S 33°53' E 018°11'3 5.3
2017-Aug-11 18:00S 33°52' E 018°14'4 7.2
2017-Aug-11 17:30S 33°52' E 018°18'4 7.3
2017-Aug-11 17:00S 33°52' E 018°23'2 5.0
2017-Aug-11 16:30S 33°52' E 018°25'4 7.5
2017-Aug-11 16:00S 33°52' E 018°21'4 9.0
2017-Aug-11 15:30S 33°51' E 018°16'3 6.4
2017-Aug-11 15:00S 33°52' E 018°12'1 2.3
2017-Aug-11 14:30S 33°52' E 018°14'1 1.2
2017-Aug-11 13:30S 33°51' E 018°12'2 4.6
2017-Aug-11 13:00S 33°50' E 018°15'3 5.0
2017-Aug-11 12:30S 33°50' E 018°11'3 6.4
2017-Aug-11 12:00S 33°51' E 018°15'3 6.7
2017-Aug-11 11:31S 33°52' E 018°12'3 4.9
2017-Aug-11 11:00S 33°51' E 018°14'4 7.2
2017-Aug-11 10:30S 33°53' E 018°11'3 5.9
2017-Aug-11 10:00S 33°52' E 018°15'2 3.3
2017-Aug-11 09:30S 33°51' E 018°13'4 8.5
2017-Aug-11 09:00S 33°53' E 018°09'3 6.6
2017-Aug-11 08:30S 33°52' E 018°13'0 0.7
2017-Aug-11 07:59S 33°52' E 018°13'511.0
2017-Aug-11 07:30S 33°57' E 018°11'1311.8
2017-Aug-11 06:22S 34°10' E 018°15'513.3
2017-Aug-11 06:00S 34°15' E 018°15'67513.2
2017-Aug-09 02:52S 30°29' E 030°48'616.5
2017-Aug-09 02:30S 30°24' E 030°52'815.9
2017-Aug-09 02:00S 30°17' E 030°56'815.1
2017-Aug-09 01:30S 30°11' E 031°01'714.8
2017-Aug-09 01:00S 30°04' E 031°05'915.3
2017-Aug-09 00:23S 29°55' E 031°09'614.9
2017-Aug-09 00:00S 29°50' E 031°07'5 9.1
2017-Aug-08 23:31S 29°53' E 031°03'1 1.8
2017-Aug-08 23:00S 29°53' E 031°02'0 0.0
2017-Aug-08 22:29S 29°53' E 031°02'0 0.0
2017-Aug-08 21:59S 29°53' E 031°02'0 0.0
2017-Aug-08 21:29S 29°53' E 031°02'0 0.0
2017-Aug-08 20:59S 29°53' E 031°02'0 0.0
2017-Aug-08 20:29S 29°53' E 031°02'0 0.0
2017-Aug-08 19:59S 29°53' E 031°02'0 0.0
2017-Aug-08 19:26S 29°53' E 031°02'0 0.0
2017-Aug-08 18:59S 29°53' E 031°02'0 0.0
2017-Aug-08 18:29S 29°53' E 031°02'0 0.0
2017-Aug-08 17:59S 29°53' E 031°02'0 0.0
2017-Aug-08 17:29S 29°53' E 031°02'0 0.0
2017-Aug-08 16:59S 29°53' E 031°02'0 0.0
2017-Aug-08 16:29S 29°53' E 031°02'0 0.0
2017-Aug-08 15:59S 29°53' E 031°02'0 0.0
2017-Aug-08 15:29S 29°53' E 031°02'0 0.0
2017-Aug-08 14:59S 29°53' E 031°02'0 0.0
2017-Aug-08 14:29S 29°53' E 031°02'0 0.0
2017-Aug-08 13:59S 29°53' E 031°02'0 0.0
2017-Aug-08 13:29S 29°53' E 031°02'0 0.0
2017-Aug-08 12:59S 29°53' E 031°02'0 0.0
2017-Aug-08 12:29S 29°53' E 031°02'0 0.0
2017-Aug-08 11:59S 29°53' E 031°02'0 0.0
2017-Aug-08 11:29S 29°53' E 031°02'0 0.0
2017-Aug-08 10:59S 29°53' E 031°02'0 0.0
2017-Aug-08 10:29S 29°53' E 031°02'0 0.0
2017-Aug-08 09:59S 29°53' E 031°02'0 0.0
2017-Aug-08 09:29S 29°53' E 031°02'0 0.0
2017-Aug-08 08:59S 29°53' E 031°02'0 0.0
2017-Aug-08 08:29S 29°53' E 031°02'0 0.0
2017-Aug-08 07:53S 29°53' E 031°02'0 0.0
2017-Aug-08 07:29S 29°53' E 031°02'0 0.0
2017-Aug-08 06:59S 29°53' E 031°02'0 0.0
2017-Aug-08 06:29S 29°53' E 031°02'0 0.0
2017-Aug-08 05:59S 29°53' E 031°02'0 0.0
2017-Aug-08 05:29S 29°53' E 031°02'0 0.0
2017-Aug-08 04:59S 29°53' E 031°02'0 0.0
2017-Aug-08 04:29S 29°53' E 031°02'0 0.0
2017-Aug-08 03:59S 29°53' E 031°02'0 0.0
2017-Aug-08 03:29S 29°53' E 031°02'0 0.0
2017-Aug-08 02:59S 29°53' E 031°02'0 0.0
2017-Aug-08 02:29S 29°53' E 031°02'0 0.0
2017-Aug-08 01:59S 29°53' E 031°02'0 0.0
2017-Aug-08 01:29S 29°53' E 031°02'0 0.0
2017-Aug-08 00:59S 29°53' E 031°02'0 0.0
2017-Aug-08 00:23S 29°53' E 031°02'0 0.0
2017-Aug-07 23:59S 29°53' E 031°02'0 0.0
2017-Aug-07 23:29S 29°53' E 031°02'0 0.0
2017-Aug-07 22:59S 29°53' E 031°02'0 0.0
2017-Aug-07 22:29S 29°53' E 031°02'0 0.0
2017-Aug-07 21:59S 29°53' E 031°02'0 0.0
2017-Aug-07 21:29S 29°53' E 031°02'0 0.0
2017-Aug-07 20:59S 29°53' E 031°02'0 0.0
2017-Aug-07 20:29S 29°53' E 031°02'0 0.0
2017-Aug-07 19:59S 29°53' E 031°02'0 0.0
2017-Aug-07 19:29S 29°53' E 031°02'0 0.0
2017-Aug-07 18:59S 29°53' E 031°02'0 0.0
2017-Aug-07 18:29S 29°53' E 031°02'0 0.0
2017-Aug-07 17:59S 29°53' E 031°02'0 0.0
2017-Aug-07 17:29S 29°53' E 031°02'0 0.0
2017-Aug-07 16:59S 29°53' E 031°02'0 0.0
2017-Aug-07 16:29S 29°53' E 031°02'0 0.0
2017-Aug-07 15:59S 29°53' E 031°02'0 0.0
2017-Aug-07 15:29S 29°53' E 031°02'0 0.0
2017-Aug-07 14:59S 29°53' E 031°02'0 0.0
2017-Aug-07 14:29S 29°53' E 031°02'0 0.0
2017-Aug-07 13:59S 29°53' E 031°02'0 0.0
2017-Aug-07 13:29S 29°53' E 031°02'0 0.0
2017-Aug-07 12:59S 29°53' E 031°02'0 0.0
2017-Aug-07 12:29S 29°53' E 031°02'0 0.0
2017-Aug-07 11:59S 29°53' E 031°02'0 0.0
2017-Aug-07 11:29S 29°53' E 031°02'0 0.0
2017-Aug-07 11:01S 29°53' E 031°02'1 2.2
2017-Aug-07 10:30S 29°53' E 031°03'4 7.6
2017-Aug-07 10:00S 29°49' E 031°06'2 3.0
2017-Aug-07 09:31S 29°49' E 031°07'1 1.1
2017-Aug-07 09:00S 29°49' E 031°08'4 7.3
2017-Aug-07 08:30S 29°47' E 031°12'3 5.2
2017-Aug-07 08:00S 29°46' E 031°14'4 7.2
2017-Aug-07 07:30S 29°42' E 031°13'2 3.6
2017-Aug-07 07:00S 29°40' E 031°13'0 0.0
2017-Aug-07 06:30S 29°40' E 031°13'0 0.1
2017-Aug-07 06:00S 29°40' E 031°13'0 0.1
2017-Aug-07 05:30S 29°40' E 031°13'0 0.1
2017-Aug-07 05:00S 29°40' E 031°13'0 0.1
2017-Aug-07 04:30S 29°40' E 031°13'0 0.0
2017-Aug-07 04:00S 29°40' E 031°13'0 0.1
2017-Aug-07 03:30S 29°40' E 031°13'0 0.0
2017-Aug-07 02:57S 29°40' E 031°13'0 0.0
2017-Aug-07 02:30S 29°40' E 031°13'0 0.0
2017-Aug-07 02:00S 29°40' E 031°13'0 0.0
2017-Aug-07 01:30S 29°40' E 031°13'0 0.0
2017-Aug-07 01:00S 29°40' E 031°13'0 0.0
2017-Aug-07 00:21S 29°40' E 031°13'0 0.0
2017-Aug-07 00:00S 29°40' E 031°13'0 0.0
2017-Aug-06 23:30S 29°40' E 031°13'0 0.0
2017-Aug-06 23:00S 29°40' E 031°13'0 0.0
2017-Aug-06 22:30S 29°40' E 031°13'0 0.0
2017-Aug-06 22:00S 29°40' E 031°13'0 0.0
2017-Aug-06 21:30S 29°40' E 031°13'0 0.0
2017-Aug-06 21:00S 29°40' E 031°13'0 0.0
2017-Aug-06 20:30S 29°40' E 031°13'0 0.0
2017-Aug-06 20:00S 29°40' E 031°13'0 0.0
2017-Aug-06 19:30S 29°40' E 031°13'0 0.0
2017-Aug-06 19:00S 29°40' E 031°13'0 0.0
2017-Aug-06 18:30S 29°40' E 031°13'0 0.0
2017-Aug-06 18:00S 29°40' E 031°13'0 0.0
2017-Aug-06 17:30S 29°40' E 031°13'0 0.0
2017-Aug-06 17:00S 29°40' E 031°13'0 0.0
2017-Aug-06 16:30S 29°40' E 031°13'0 0.0
2017-Aug-06 16:00S 29°40' E 031°13'0 0.0
2017-Aug-06 15:30S 29°40' E 031°13'0 0.0
2017-Aug-06 15:00S 29°40' E 031°13'0 0.0
2017-Aug-06 14:30S 29°40' E 031°13'0 0.0
2017-Aug-06 14:00S 29°40' E 031°13'0 0.0
2017-Aug-06 13:30S 29°40' E 031°13'0 0.0
2017-Aug-06 13:00S 29°40' E 031°13'0 0.0
2017-Aug-06 12:30S 29°40' E 031°13'0 0.0
2017-Aug-06 12:00S 29°40' E 031°13'0 0.0
2017-Aug-06 11:30S 29°40' E 031°13'0 0.0
2017-Aug-06 11:00S 29°40' E 031°13'0 0.0
2017-Aug-06 10:27S 29°40' E 031°13'0 0.0
2017-Aug-06 10:00S 29°40' E 031°13'0 0.0
2017-Aug-06 09:30S 29°40' E 031°13'0 0.0
2017-Aug-06 09:00S 29°40' E 031°13'0 0.0
2017-Aug-06 08:30S 29°40' E 031°13'0 0.0
2017-Aug-06 08:00S 29°40' E 031°13'0 0.0
2017-Aug-06 07:30S 29°40' E 031°13'0 0.0
2017-Aug-06 07:00S 29°40' E 031°13'0 0.0
2017-Aug-06 06:30S 29°40' E 031°13'0 0.0
2017-Aug-06 06:00S 29°40' E 031°13'0 0.0
2017-Aug-06 05:30S 29°40' E 031°13'0 0.0
2017-Aug-06 05:00S 29°40' E 031°13'0 0.0
2017-Aug-06 04:30S 29°40' E 031°13'0 0.0
2017-Aug-06 04:00S 29°40' E 031°13'0 0.0
2017-Aug-06 03:30S 29°40' E 031°13'0 0.0
2017-Aug-06 03:00S 29°40' E 031°13'0 0.0
2017-Aug-06 02:30S 29°40' E 031°13'0 0.0
2017-Aug-06 01:57S 29°40' E 031°13'0 0.0
2017-Aug-06 01:30S 29°40' E 031°13'0 0.0
2017-Aug-06 01:00S 29°40' E 031°13'0 0.0
2017-Aug-05 11:15S 29°40' E 031°13'0 0.0
2017-Aug-05 11:00S 29°40' E 031°13'0 0.0
2017-Aug-05 10:30S 29°40' E 031°13'0 0.0
2017-Aug-05 10:00S 29°40' E 031°13'0 0.3
2017-Aug-05 09:30S 29°40' E 031°13'0 0.1
2017-Aug-05 08:57S 29°40' E 031°13'0 0.1
2017-Aug-05 08:30S 29°40' E 031°13'0 0.0
2017-Aug-05 08:00S 29°40' E 031°13'0 0.1
2017-Aug-05 07:27S 29°40' E 031°13'0 0.2
2017-Aug-05 07:00S 29°40' E 031°13'0 0.1
2017-Aug-05 06:30S 29°40' E 031°13'0 0.0
2017-Aug-05 06:00S 29°40' E 031°13'0 0.1
2017-Aug-05 05:30S 29°40' E 031°13'0 0.0
2017-Aug-05 05:00S 29°40' E 031°13'0 0.0
2017-Aug-05 04:30S 29°40' E 031°13'0 0.1
2017-Aug-05 04:00S 29°40' E 031°13'0 0.1
2017-Aug-05 03:30S 29°40' E 031°13'1 2.6
2017-Aug-05 03:00S 29°40' E 031°14'2 4.7
2017-Aug-05 02:30S 29°41' E 031°17'2 4.0
2017-Aug-05 02:00S 29°42' E 031°18'4 8.7
2017-Aug-05 01:30S 29°46' E 031°17'4 8.7
2017-Aug-05 01:00S 29°50' E 031°15'5 8.8
2017-Aug-05 00:24S 29°55' E 031°12'4 9.4
2017-Aug-05 00:00S 29°58' E 031°10'510.2
2017-Aug-04 23:30S 30°02' E 031°06'510.1
2017-Aug-04 23:00S 30°07' E 031°03'510.3
2017-Aug-04 22:30S 30°11' E 030°60'5 9.9
2017-Aug-04 22:00S 30°15' E 030°57'5 9.6
2017-Aug-04 21:30S 30°19' E 030°54'5 9.0
2017-Aug-04 21:00S 30°23' E 030°51'5 8.7
2017-Aug-04 20:29S 30°26' E 030°48'4 8.1
2017-Aug-04 20:00S 30°30' E 030°46'  
Track history (hours):
 
Tides and Currents Weather Stations Pressure Air Temp Water Temp Dewpoint Dewpoint Depression Visibility Wind Speed Wind Dir Waves Ship Positions

Maersk Vallvik

Last reported at 2017-Aug-13 08:48 UTC. Time now 2017-Aug-17 06:08 UTC.
Position S 33°44' E 018°09'.

Length 180 m; draft 10.4 m.

Type: Ship (hazmat cat B). MMSI: 564837000.

Date/timePositionNaut miles runAvg speedWind from/ knotsBaromVisibWave heightAir tempDewpointWater temp
2017-Aug-13 08:48S 33°44' E 018°09'516.5
2017-Aug-13 08:30S 33°47' E 018°14'816.0
2017-Aug-13 08:00S 33°51' E 018°22'3 6.1
2017-Aug-13 07:30S 33°51' E 018°25'3 6.4
2017-Aug-13 07:00S 33°55' E 018°26'0 0.4
2017-Aug-13 06:29S 33°55' E 018°26'0 0.0
2017-Aug-13 05:59S 33°55' E 018°26'0 0.0
2017-Aug-13 05:29S 33°55' E 018°26'0 0.0
2017-Aug-13 04:59S 33°55' E 018°26'0 0.0
2017-Aug-13 04:29S 33°55' E 018°26'0 0.0
2017-Aug-13 03:59S 33°55' E 018°26'0 0.0
2017-Aug-13 03:29S 33°55' E 018°26'0 0.0
2017-Aug-13 02:56S 33°55' E 018°26'0 0.0
2017-Aug-13 02:29S 33°55' E 018°26'0 0.0
2017-Aug-13 01:59S 33°55' E 018°26'0 0.0
2017-Aug-13 01:29S 33°55' E 018°26'0 0.0
2017-Aug-13 00:59S 33°55' E 018°26'0 0.0
2017-Aug-13 00:29S 33°55' E 018°26'0 0.0
2017-Aug-12 23:56S 33°55' E 018°26'0 0.0
2017-Aug-12 23:29S 33°55' E 018°26'0 0.0
2017-Aug-12 22:59S 33°55' E 018°26'0 0.0
2017-Aug-12 22:29S 33°55' E 018°26'0 0.0
2017-Aug-12 21:59S 33°55' E 018°26'0 0.0
2017-Aug-12 21:29S 33°55' E 018°26'0 0.0
2017-Aug-12 20:59S 33°55' E 018°26'0 0.0
2017-Aug-12 20:29S 33°55' E 018°26'0 0.0
2017-Aug-12 19:59S 33°55' E 018°26'0 0.0
2017-Aug-12 19:23S 33°55' E 018°26'0 0.0
2017-Aug-12 18:59S 33°55' E 018°26'0 0.0
2017-Aug-12 18:29S 33°55' E 018°26'0 0.0
2017-Aug-12 17:59S 33°55' E 018°26'0 0.0
2017-Aug-12 17:29S 33°55' E 018°26'0 0.0
2017-Aug-12 16:59S 33°55' E 018°26'0 0.0
2017-Aug-12 16:29S 33°55' E 018°26'0 0.0
2017-Aug-12 15:59S 33°55' E 018°26'0 0.0
2017-Aug-12 15:26S 33°55' E 018°26'0 0.0
2017-Aug-12 14:59S 33°55' E 018°26'0 0.0
2017-Aug-12 14:29S 33°55' E 018°26'0 0.0
2017-Aug-12 13:59S 33°55' E 018°26'0 0.0
2017-Aug-12 13:29S 33°55' E 018°26'0 0.0
2017-Aug-12 12:59S 33°55' E 018°26'0 0.0
2017-Aug-12 12:26S 33°55' E 018°26'0 0.0
2017-Aug-12 11:59S 33°55' E 018°26'0 0.0
2017-Aug-12 11:29S 33°55' E 018°26'0 0.0
2017-Aug-12 10:56S 33°55' E 018°26'0 0.0
2017-Aug-12 10:23S 33°55' E 018°26'0 0.0
2017-Aug-12 09:59S 33°55' E 018°26'0 0.0
2017-Aug-12 09:29S 33°55' E 018°26'0 0.0
2017-Aug-12 08:59S 33°55' E 018°26'0 0.0
2017-Aug-12 08:29S 33°55' E 018°26'0 0.0
2017-Aug-12 07:56S 33°55' E 018°26'0 0.0
2017-Aug-12 07:26S 33°55' E 018°26'0 0.0
2017-Aug-12 06:56S 33°55' E 018°26'0 0.0
2017-Aug-12 06:20S 33°55' E 018°26'0 0.0
2017-Aug-12 05:59S 33°55' E 018°26'0 0.0
2017-Aug-12 05:29S 33°55' E 018°26'0 0.0
2017-Aug-12 04:59S 33°55' E 018°26'0 0.0
2017-Aug-12 04:29S 33°55' E 018°26'0 0.0
2017-Aug-12 03:59S 33°55' E 018°26'0 0.0
2017-Aug-12 03:29S 33°55' E 018°26'0 0.0
2017-Aug-12 02:56S 33°55' E 018°26'0 0.0
2017-Aug-12 02:26S 33°55' E 018°26'0 0.0
2017-Aug-12 01:59S 33°55' E 018°26'0 0.0
2017-Aug-12 01:29S 33°55' E 018°26'0 0.0
2017-Aug-12 00:59S 33°55' E 018°26'0 0.0
2017-Aug-12 00:29S 33°55' E 018°26'0 0.0
2017-Aug-11 23:59S 33°55' E 018°26'0 0.0
2017-Aug-11 23:29S 33°55' E 018°26'0 0.0
2017-Aug-11 22:56S 33°55' E 018°26'0 0.0
2017-Aug-11 22:29S 33°55' E 018°26'0 0.0
2017-Aug-11 21:56S 33°55' E 018°26'0 0.0
2017-Aug-11 21:29S 33°55' E 018°26'0 0.0
2017-Aug-11 20:59S 33°55' E 018°26'0 0.0
2017-Aug-11 20:26S 33°55' E 018°26'0 0.2
2017-Aug-11 20:00S 33°55' E 018°26'2 4.7
2017-Aug-11 19:30S 33°52' E 018°26'5 9.7
2017-Aug-11 19:00S 33°52' E 018°20'714.4
2017-Aug-11 18:29S 33°53' E 018°11'3 5.3
2017-Aug-11 18:00S 33°52' E 018°14'4 7.2
2017-Aug-11 17:30S 33°52' E 018°18'4 7.3
2017-Aug-11 17:00S 33°52' E 018°23'2 5.0
2017-Aug-11 16:30S 33°52' E 018°25'4 7.5
2017-Aug-11 16:00S 33°52' E 018°21'4 9.0
2017-Aug-11 15:30S 33°51' E 018°16'3 6.4
2017-Aug-11 15:00S 33°52' E 018°12'1 2.3
2017-Aug-11 14:30S 33°52' E 018°14'1 1.2
2017-Aug-11 13:30S 33°51' E 018°12'2 4.6
2017-Aug-11 13:00S 33°50' E 018°15'3 5.0
2017-Aug-11 12:30S 33°50' E 018°11'3 6.4
2017-Aug-11 12:00S 33°51' E 018°15'3 6.7
2017-Aug-11 11:31S 33°52' E 018°12'3 4.9
2017-Aug-11 11:00S 33°51' E 018°14'4 7.2
2017-Aug-11 10:30S 33°53' E 018°11'3 5.9
2017-Aug-11 10:00S 33°52' E 018°15'2 3.3
2017-Aug-11 09:30S 33°51' E 018°13'4 8.5
2017-Aug-11 09:00S 33°53' E 018°09'3 6.6
2017-Aug-11 08:30S 33°52' E 018°13'0 0.7
2017-Aug-11 07:59S 33°52' E 018°13'511.0
2017-Aug-11 07:30S 33°57' E 018°11'1311.8
2017-Aug-11 06:22S 34°10' E 018°15'513.3
2017-Aug-11 06:00S 34°15' E 018°15'67513.2
2017-Aug-09 02:52S 30°29' E 030°48'616.5
2017-Aug-09 02:30S 30°24' E 030°52'815.9
2017-Aug-09 02:00S 30°17' E 030°56'815.1
2017-Aug-09 01:30S 30°11' E 031°01'714.8
2017-Aug-09 01:00S 30°04' E 031°05'915.3
2017-Aug-09 00:23S 29°55' E 031°09'614.9
2017-Aug-09 00:00S 29°50' E 031°07'5 9.1
2017-Aug-08 23:31S 29°53' E 031°03'1 1.8
2017-Aug-08 23:00S 29°53' E 031°02'0 0.0
2017-Aug-08 22:29S 29°53' E 031°02'0 0.0
2017-Aug-08 21:59S 29°53' E 031°02'0 0.0
2017-Aug-08 21:29S 29°53' E 031°02'0 0.0
2017-Aug-08 20:59S 29°53' E 031°02'0 0.0
2017-Aug-08 20:29S 29°53' E 031°02'0 0.0
2017-Aug-08 19:59S 29°53' E 031°02'0 0.0
2017-Aug-08 19:26S 29°53' E 031°02'0 0.0
2017-Aug-08 18:59S 29°53' E 031°02'0 0.0
2017-Aug-08 18:29S 29°53' E 031°02'0 0.0
2017-Aug-08 17:59S 29°53' E 031°02'0 0.0
2017-Aug-08 17:29S 29°53' E 031°02'0 0.0
2017-Aug-08 16:59S 29°53' E 031°02'0 0.0
2017-Aug-08 16:29S 29°53' E 031°02'0 0.0
2017-Aug-08 15:59S 29°53' E 031°02'0 0.0
2017-Aug-08 15:29S 29°53' E 031°02'0 0.0
2017-Aug-08 14:59S 29°53' E 031°02'0 0.0
2017-Aug-08 14:29S 29°53' E 031°02'0 0.0
2017-Aug-08 13:59S 29°53' E 031°02'0 0.0
2017-Aug-08 13:29S 29°53' E 031°02'0 0.0
2017-Aug-08 12:59S 29°53' E 031°02'0 0.0
2017-Aug-08 12:29S 29°53' E 031°02'0 0.0
2017-Aug-08 11:59S 29°53' E 031°02'0 0.0
2017-Aug-08 11:29S 29°53' E 031°02'0 0.0
2017-Aug-08 10:59S 29°53' E 031°02'0 0.0
2017-Aug-08 10:29S 29°53' E 031°02'0 0.0
2017-Aug-08 09:59S 29°53' E 031°02'0 0.0
2017-Aug-08 09:29S 29°53' E 031°02'0 0.0
2017-Aug-08 08:59S 29°53' E 031°02'0 0.0
2017-Aug-08 08:29S 29°53' E 031°02'0 0.0
2017-Aug-08 07:53S 29°53' E 031°02'0 0.0
2017-Aug-08 07:29S 29°53' E 031°02'0 0.0
2017-Aug-08 06:59S 29°53' E 031°02'0 0.0
2017-Aug-08 06:29S 29°53' E 031°02'0 0.0
2017-Aug-08 05:59S 29°53' E 031°02'0 0.0
2017-Aug-08 05:29S 29°53' E 031°02'0 0.0
2017-Aug-08 04:59S 29°53' E 031°02'0 0.0
2017-Aug-08 04:29S 29°53' E 031°02'0 0.0
2017-Aug-08 03:59S 29°53' E 031°02'0 0.0
2017-Aug-08 03:29S 29°53' E 031°02'0 0.0
2017-Aug-08 02:59S 29°53' E 031°02'0 0.0
2017-Aug-08 02:29S 29°53' E 031°02'0 0.0
2017-Aug-08 01:59S 29°53' E 031°02'0 0.0
2017-Aug-08 01:29S 29°53' E 031°02'0 0.0
2017-Aug-08 00:59S 29°53' E 031°02'0 0.0
2017-Aug-08 00:23S 29°53' E 031°02'0 0.0
2017-Aug-07 23:59S 29°53' E 031°02'0 0.0
2017-Aug-07 23:29S 29°53' E 031°02'0 0.0
2017-Aug-07 22:59S 29°53' E 031°02'0 0.0
2017-Aug-07 22:29S 29°53' E 031°02'0 0.0
2017-Aug-07 21:59S 29°53' E 031°02'0 0.0
2017-Aug-07 21:29S 29°53' E 031°02'0 0.0
2017-Aug-07 20:59S 29°53' E 031°02'0 0.0
2017-Aug-07 20:29S 29°53' E 031°02'0 0.0
2017-Aug-07 19:59S 29°53' E 031°02'0 0.0
2017-Aug-07 19:29S 29°53' E 031°02'0 0.0
2017-Aug-07 18:59S 29°53' E 031°02'0 0.0
2017-Aug-07 18:29S 29°53' E 031°02'0 0.0
2017-Aug-07 17:59S 29°53' E 031°02'0 0.0
2017-Aug-07 17:29S 29°53' E 031°02'0 0.0
2017-Aug-07 16:59S 29°53' E 031°02'0 0.0
2017-Aug-07 16:29S 29°53' E 031°02'0 0.0
2017-Aug-07 15:59S 29°53' E 031°02'0 0.0
2017-Aug-07 15:29S 29°53' E 031°02'0 0.0
2017-Aug-07 14:59S 29°53' E 031°02'0 0.0
2017-Aug-07 14:29S 29°53' E 031°02'0 0.0
2017-Aug-07 13:59S 29°53' E 031°02'0 0.0
2017-Aug-07 13:29S 29°53' E 031°02'0 0.0
2017-Aug-07 12:59S 29°53' E 031°02'0 0.0
2017-Aug-07 12:29S 29°53' E 031°02'0 0.0
2017-Aug-07 11:59S 29°53' E 031°02'0 0.0
2017-Aug-07 11:29S 29°53' E 031°02'0 0.0
2017-Aug-07 11:01S 29°53' E 031°02'1 2.2
2017-Aug-07 10:30S 29°53' E 031°03'4 7.6
2017-Aug-07 10:00S 29°49' E 031°06'2 3.0
2017-Aug-07 09:31S 29°49' E 031°07'1 1.1
2017-Aug-07 09:00S 29°49' E 031°08'4 7.3
2017-Aug-07 08:30S 29°47' E 031°12'3 5.2
2017-Aug-07 08:00S 29°46' E 031°14'4 7.2
2017-Aug-07 07:30S 29°42' E 031°13'2 3.6
2017-Aug-07 07:00S 29°40' E 031°13'0 0.0
2017-Aug-07 06:30S 29°40' E 031°13'0 0.1
2017-Aug-07 06:00S 29°40' E 031°13'0 0.1
2017-Aug-07 05:30S 29°40' E 031°13'0 0.1
2017-Aug-07 05:00S 29°40' E 031°13'0 0.1
2017-Aug-07 04:30S 29°40' E 031°13'0 0.0
2017-Aug-07 04:00S 29°40' E 031°13'0 0.1
2017-Aug-07 03:30S 29°40' E 031°13'0 0.0
2017-Aug-07 02:57S 29°40' E 031°13'0 0.0
2017-Aug-07 02:30S 29°40' E 031°13'0 0.0
2017-Aug-07 02:00S 29°40' E 031°13'0 0.0
2017-Aug-07 01:30S 29°40' E 031°13'0 0.0
2017-Aug-07 01:00S 29°40' E 031°13'0 0.0
2017-Aug-07 00:21S 29°40' E 031°13'0 0.0
2017-Aug-07 00:00S 29°40' E 031°13'0 0.0
2017-Aug-06 23:30S 29°40' E 031°13'0 0.0
2017-Aug-06 23:00S 29°40' E 031°13'0 0.0
2017-Aug-06 22:30S 29°40' E 031°13'0 0.0
2017-Aug-06 22:00S 29°40' E 031°13'0 0.0
2017-Aug-06 21:30S 29°40' E 031°13'0 0.0
2017-Aug-06 21:00S 29°40' E 031°13'0 0.0
2017-Aug-06 20:30S 29°40' E 031°13'0 0.0
2017-Aug-06 20:00S 29°40' E 031°13'0 0.0
2017-Aug-06 19:30S 29°40' E 031°13'0 0.0
2017-Aug-06 19:00S 29°40' E 031°13'0 0.0
2017-Aug-06 18:30S 29°40' E 031°13'0 0.0
2017-Aug-06 18:00S 29°40' E 031°13'0 0.0
2017-Aug-06 17:30S 29°40' E 031°13'0 0.0
2017-Aug-06 17:00S 29°40' E 031°13'0 0.0
2017-Aug-06 16:30S 29°40' E 031°13'0 0.0
2017-Aug-06 16:00S 29°40' E 031°13'0 0.0
2017-Aug-06 15:30S 29°40' E 031°13'0 0.0
2017-Aug-06 15:00S 29°40' E 031°13'0 0.0
2017-Aug-06 14:30S 29°40' E 031°13'0 0.0
2017-Aug-06 14:00S 29°40' E 031°13'0 0.0
2017-Aug-06 13:30S 29°40' E 031°13'0 0.0
2017-Aug-06 13:00S 29°40' E 031°13'0 0.0
2017-Aug-06 12:30S 29°40' E 031°13'0 0.0
2017-Aug-06 12:00S 29°40' E 031°13'0 0.0
2017-Aug-06 11:30S 29°40' E 031°13'0 0.0
2017-Aug-06 11:00S 29°40' E 031°13'0 0.0
2017-Aug-06 10:27S 29°40' E 031°13'0 0.0
2017-Aug-06 10:00S 29°40' E 031°13'0 0.0
2017-Aug-06 09:30S 29°40' E 031°13'0 0.0
2017-Aug-06 09:00S 29°40' E 031°13'0 0.0
2017-Aug-06 08:30S 29°40' E 031°13'0 0.0
2017-Aug-06 08:00S 29°40' E 031°13'0 0.0
2017-Aug-06 07:30S 29°40' E 031°13'0 0.0
2017-Aug-06 07:00S 29°40' E 031°13'0 0.0
2017-Aug-06 06:30S 29°40' E 031°13'0 0.0
2017-Aug-06 06:00S 29°40' E 031°13'0 0.0
2017-Aug-06 05:30S 29°40' E 031°13'0 0.0
2017-Aug-06 05:00S 29°40' E 031°13'0 0.0
2017-Aug-06 04:30S 29°40' E 031°13'0 0.0
2017-Aug-06 04:00S 29°40' E 031°13'0 0.0
2017-Aug-06 03:30S 29°40' E 031°13'0 0.0
2017-Aug-06 03:00S 29°40' E 031°13'0 0.0
2017-Aug-06 02:30S 29°40' E 031°13'0 0.0
2017-Aug-06 01:57S 29°40' E 031°13'0 0.0
2017-Aug-06 01:30S 29°40' E 031°13'0 0.0
2017-Aug-06 01:00S 29°40' E 031°13'0 0.0
2017-Aug-05 11:15S 29°40' E 031°13'0 0.0
2017-Aug-05 11:00S 29°40' E 031°13'0 0.0
2017-Aug-05 10:30S 29°40' E 031°13'0 0.0
2017-Aug-05 10:00S 29°40' E 031°13'0 0.3
2017-Aug-05 09:30S 29°40' E 031°13'0 0.1
2017-Aug-05 08:57S 29°40' E 031°13'0 0.1
2017-Aug-05 08:30S 29°40' E 031°13'0 0.0
2017-Aug-05 08:00S 29°40' E 031°13'0 0.1
2017-Aug-05 07:27S 29°40' E 031°13'0 0.2
2017-Aug-05 07:00S 29°40' E 031°13'0 0.1
2017-Aug-05 06:30S 29°40' E 031°13'0 0.0
2017-Aug-05 06:00S 29°40' E 031°13'0 0.1
2017-Aug-05 05:30S 29°40' E 031°13'0 0.0
2017-Aug-05 05:00S 29°40' E 031°13'0 0.0
2017-Aug-05 04:30S 29°40' E 031°13'0 0.1
2017-Aug-05 04:00S 29°40' E 031°13'0 0.1
2017-Aug-05 03:30S 29°40' E 031°13'1 2.6
2017-Aug-05 03:00S 29°40' E 031°14'2 4.7
2017-Aug-05 02:30S 29°41' E 031°17'2 4.0
2017-Aug-05 02:00S 29°42' E 031°18'4 8.7
2017-Aug-05 01:30S 29°46' E 031°17'4 8.7
2017-Aug-05 01:00S 29°50' E 031°15'5 8.8
2017-Aug-05 00:24S 29°55' E 031°12'4 9.4
2017-Aug-05 00:00S 29°58' E 031°10'510.2
2017-Aug-04 23:30S 30°02' E 031°06'510.1
2017-Aug-04 23:00S 30°07' E 031°03'510.3
2017-Aug-04 22:30S 30°11' E 030°60'5 9.9
2017-Aug-04 22:00S 30°15' E 030°57'5 9.6
2017-Aug-04 21:30S 30°19' E 030°54'5 9.0
2017-Aug-04 21:00S 30°23' E 030°51'5 8.7
2017-Aug-04 20:29S 30°26' E 030°48'4 8.1
2017-Aug-04 20:00S 30°30' E 030°46'  

Dump ship's entire track history